MST,Max TemperatureF,Mean TemperatureF,Min TemperatureF,Max Dew PointF,MeanDew PointF,Min DewpointF,Max Humidity, Mean Humidity, Min Humidity, Max Sea Level PressureIn, Mean Sea Level PressureIn, Min Sea Level PressureIn, Max VisibilityMiles, Mean VisibilityMiles, Min VisibilityMiles, Max Wind SpeedMPH, Mean Wind SpeedMPH, Max Gust SpeedMPH,PrecipitationIn, CloudCover, Events, WindDirDegrees
2011-12-1,48,39,28,21,19,17,61,44,31,30.14,29.96,29.74,10,10,10,24,7,32,0.00,4,,51
2011-12-2,37,32,27,30,24,17,82,71,46,30.12,29.97,29.84,10,10,10,10,3,,0.00,6,,320
2011-12-3,39,30,19,29,20,11,89,66,38,30.17,30.00,29.83,10,10,8,10,4,,0.00,5,Snow,286
2011-12-4,34,26,19,16,11,8,71,55,35,30.19,30.13,30.02,10,10,10,9,4,,0.00,5,,325
2011-12-5,30,23,10,13,5,-3,68,49,31,30.43,30.30,30.11,10,10,10,8,2,,0.00,3,,270
2011-12-6,32,20,9,0,-2,-3,64,41,24,30.54,30.46,30.41,10,10,10,6,1,,0.00,0,,80
2011-12-7,34,22,10,4,1,-1,62,44,28,30.59,30.41,30.21,10,10,10,7,2,,0.00,0,,311
2011-12-8,39,26,12,8,5,2,65,46,27,30.38,30.31,30.16,10,10,10,8,2,,0.00,0,,293
2011-12-9,39,26,12,14,8,2,65,51,33,30.48,30.41,30.26,10,10,10,8,1,,0.00,0,,293
2011-12-10,41,28,15,15,11,6,74,56,33,30.54,30.39,30.25,10,10,10,6,2,,0.00,0,,305
2011-12-11,42,27,12,16,11,6,79,58,35,30.24,30.13,30.03,10,10,10,6,2,,0.00,0,,298
2011-12-12,37,26,15,28,23,8,100,84,44,30.09,29.98,29.92,10,5,1,12,3,,0.05,6,Snow,317
2011-12-13,35,32,28,32,30,28,100,94,87,30.04,29.94,29.88,10,7,2,9,3,,0.09,8,Rain-Snow,323
2011-12-14,41,33,24,32,28,23,100,87,53,30.27,30.08,29.91,10,9,3,8,2,,0.00,3,,316
2011-12-15,37,28,19,30,25,18,92,86,73,30.38,30.29,30.22,10,10,10,8,1,,0.00,1,,309
2011-12-16,37,28,18,25,21,15,96,81,62,30.57,30.48,30.33,10,10,9,8,3,,0.00,0,,289
2011-12-17,37,27,17,24,20,14,92,80,57,30.63,30.54,30.43,10,10,10,9,4,,0.00,0,,297
2011-12-18,34,25,16,24,20,14,93,82,64,30.39,30.22,30.03,10,10,10,8,2,,0.00,4,,317
2011-12-19,43,33,23,25,22,20,88,71,43,30.07,29.98,29.86,10,10,10,12,3,,0.00,1,,305
2011-12-20,42,32,21,24,20,17,89,70,45,30.17,30.07,29.98,10,10,10,5,1,,0.00,0,,317
2011-12-21,41,30,19,24,17,6,89,65,34,30.06,30.00,29.89,10,10,10,23,4,,0.00,3,,292
2011-12-22,28,24,19,25,22,15,93,82,69,30.45,30.19,30.06,10,7,2,8,2,,0.00,7,Snow,291
2011-12-23,35,25,15,16,13,10,86,66,39,30.61,30.54,30.46,10,10,10,14,3,,0.00,0,,331
2011-12-24,36,23,10,13,11,7,85,64,34,30.72,30.64,30.49,10,10,10,7,1,,0.00,0,,323
2011-12-25,37,24,10,15,11,7,84,63,36,30.71,30.55,30.32,10,10,10,12,1,,0.00,0,,253
2011-12-26,37,24,12,19,13,9,84,67,45,30.46,30.39,30.32,10,10,10,5,1,,0.00,0,,290
2011-12-27,39,24,10,19,14,7,88,68,42,30.47,30.40,30.23,10,10,10,8,1,,0.00,0,,290
2011-12-28,42,28,15,19,16,11,84,63,37,30.54,30.43,30.33,10,10,10,10,2,,0.00,0,,232
2011-12-29,46,32,17,20,17,14,84,61,37,30.33,30.23,30.14,10,10,10,10,3,12,0.00,0,,297
2011-12-30,47,34,20,24,21,17,84,63,41,30.27,30.13,29.94,10,10,10,15,2,16,0.00,0,,289
2011-12-31,46,31,16,21,8,-4,81,47,12,30.53,30.23,29.88,10,10,10,30,8,36,0.00,0,,301